Time;durP1;ratioP1;P1;durP2;ratioP2;P2;SDS_P1;SDS_P2;PMS_P1;PMS_P2;Temp;Humidity;BMP_temperature;BMP_pressure;BME280_temperature;BME280_humidity;BME280_pressure;Samples;Min_cycle;Max_cycle;Signal;HPM_P1;HPM_P2
2024/03/17 00:00:48;;;;;;;;;;;;;;;19.55;49.07;101700.41;2058278;28;6088;-65
2024/03/17 00:01:48;;;;;;;;;;;;;;;19.55;49.16;101709.03;2059923;28;2538;-65
2024/03/17 00:02:48;;;;;;;;;;;;;;;19.55;49.09;101706.16;2058621;28;2152;-65
2024/03/17 00:03:49;;;;;;;;;;;;;;;19.54;49.14;101704.66;2060719;28;2297;-65
2024/03/17 00:04:49;;;;;;;;;;;;;;;19.54;49.01;101710.41;2068360;28;2048;-65
2024/03/17 00:05:54;;;;;;;;;;;;;;;19.54;48.95;101698.91;2068600;28;2067;-65
2024/03/17 00:06:55;;;;;;;;;;;;;;;19.55;48.98;101700.41;2067335;28;1619;-65
2024/03/17 00:07:55;;;;;;;;;;;;;;;19.54;49.08;101713.28;2066687;28;2327;-65
2024/03/17 00:08:56;;;;;;;;;;;;;;;19.55;49.05;101711.16;2059293;28;2061;-65
2024/03/17 00:09:56;;;;;;;;;;;;;;;19.55;48.96;101711.91;2058991;28;1897;-66
2024/03/17 00:10:56;;;;;;;;;;;;;;;19.55;48.95;101711.91;2060544;28;1958;-65
2024/03/17 00:11:57;;;;;;;;;;;;;;;19.55;49.03;101706.16;2058102;28;2328;-65
2024/03/17 00:12:58;;;;;;;;;;;;;;;19.55;49.02;101716.91;2058415;28;1895;-65
2024/03/17 00:13:58;;;;;;;;;;;;;;;19.56;49.17;101719.16;2064824;28;2272;-65
2024/03/17 00:14:59;;;;;;;;;;;;;;;19.56;49.16;101716.28;2059070;28;1924;-65
2024/03/17 00:15:59;;;;;;;;;;;;;;;19.56;49.16;101712.63;2059009;28;2243;-65
2024/03/17 00:17:00;;;;;;;;;;;;;;;19.56;49.06;101713.41;2061259;28;1688;-65
2024/03/17 00:18:01;;;;;;;;;;;;;;;19.56;49.19;101719.16;2060215;28;2331;-64
2024/03/17 00:19:01;;;;;;;;;;;;;;;19.56;49.12;101713.41;2060355;28;1662;-65
2024/03/17 00:20:04;;;;;;;;;;;;;;;19.56;49.22;101713.41;2059429;28;1669;-65
2024/03/17 00:21:04;;;;;;;;;;;;;;;19.56;49.06;101713.41;2060141;28;2262;-65
2024/03/17 00:22:05;;;;;;;;;;;;;;;19.58;49.11;101715.66;2058241;28;2116;-66
2024/03/17 00:23:06;;;;;;;;;;;;;;;19.58;49.06;101712.78;2060563;28;1640;-65
2024/03/17 00:24:07;;;;;;;;;;;;;;;19.58;49.04;101719.25;2066189;28;2339;-65
2024/03/17 00:25:07;;;;;;;;;;;;;;;19.59;49.06;101712.16;2059313;28;2507;-65
2024/03/17 00:26:07;;;;;;;;;;;;;;;19.58;49.04;101712.78;2061591;28;1788;-64
2024/03/17 00:27:08;;;;;;;;;;;;;;;19.60;48.98;101718.66;2061207;28;1617;-65
2024/03/17 00:28:09;;;;;;;;;;;;;;;19.60;49.11;101713.66;2060174;28;2246;-65
2024/03/17 00:29:09;;;;;;;;;;;;;;;19.61;49.07;101720.91;2059496;28;1570;-65
2024/03/17 00:30:12;;;;;;;;;;;;;;;19.61;49.11;101720.91;2058149;28;6190;-65
2024/03/17 00:31:14;;;;;;;;;;;;;;;19.61;49.10;101718.03;2059770;28;2324;-66
2024/03/17 00:32:15;;;;;;;;;;;;;;;19.61;49.01;101720.91;2060066;28;2140;-65
2024/03/17 00:33:15;;;;;;;;;;;;;;;19.61;49.17;101717.28;2067828;28;1601;-65
2024/03/17 00:34:16;;;;;;;;;;;;;;;19.61;49.13;101725.91;2060768;28;1902;-65
2024/03/17 00:35:20;;;;;;;;;;;;;;;19.61;49.17;101725.91;2060389;28;2045;-65
2024/03/17 00:36:20;;;;;;;;;;;;;;;19.60;49.04;101725.13;2067215;28;2187;-65
2024/03/17 00:37:21;;;;;;;;;;;;;;;19.60;49.23;101725.13;2060220;28;2464;-65
2024/03/17 00:38:21;;;;;;;;;;;;;;;19.61;49.21;101723.03;2062074;28;2219;-65
2024/03/17 00:39:22;;;;;;;;;;;;;;;19.60;49.18;101728.00;2060680;28;2229;-66
2024/03/17 00:40:23;;;;;;;;;;;;;;;19.60;49.29;101725.13;2061869;28;1649;-65
2024/03/17 00:41:23;;;;;;;;;;;;;;;19.60;49.26;101728.00;2062141;28;1634;-66
2024/03/17 00:42:23;;;;;;;;;;;;;;;19.59;49.29;101726.53;2062742;28;2075;-65
2024/03/17 00:43:24;;;;;;;;;;;;;;;19.60;49.28;101733.00;2063127;28;1887;-66
2024/03/17 00:44:24;;;;;;;;;;;;;;;19.59;49.25;101738.00;2065077;28;2309;-65
2024/03/17 00:45:25;;;;;;;;;;;;;;;19.60;49.36;101735.88;2059630;28;2281;-68
2024/03/17 00:46:25;;;;;;;;;;;;;;;19.59;49.24;101738.00;2064797;28;1652;-67
2024/03/17 00:47:25;;;;;;;;;;;;;;;19.59;49.33;101738.00;2062888;28;2041;-69
2024/03/17 00:48:26;;;;;;;;;;;;;;;19.59;49.25;101737.28;2062638;28;1647;-69
2024/03/17 00:49:26;;;;;;;;;;;;;;;19.59;49.38;101732.28;2059782;28;2249;-67
2024/03/17 00:50:27;;;;;;;;;;;;;;;19.59;49.43;101732.28;2063471;28;2061;-67
2024/03/17 00:51:27;;;;;;;;;;;;;;;19.58;49.42;101727.88;2061093;28;1649;-67
2024/03/17 00:52:27;;;;;;;;;;;;;;;19.58;49.44;101730.75;2059558;28;2131;-67
2024/03/17 00:53:28;;;;;;;;;;;;;;;19.57;49.41;101726.41;2061521;28;2161;-67
2024/03/17 00:54:29;;;;;;;;;;;;;;;19.58;49.44;101727.13;2059956;28;2114;-67
2024/03/17 00:55:29;;;;;;;;;;;;;;;19.56;49.49;101730.66;2061638;28;2277;-68
2024/03/17 00:56:30;;;;;;;;;;;;;;;19.57;49.47;101731.41;2060985;28;1701;-67
2024/03/17 00:57:31;;;;;;;;;;;;;;;19.57;49.42;101732.13;2062966;28;2124;-67
2024/03/17 00:58:31;;;;;;;;;;;;;;;19.56;49.38;101722.03;2071204;28;1671;-67
2024/03/17 00:59:32;;;;;;;;;;;;;;;19.56;49.42;101736.41;2062219;28;2010;-67
2024/03/17 01:00:35;;;;;;;;;;;;;;;19.56;49.52;101730.66;2059169;28;6329;-67
2024/03/17 01:01:35;;;;;;;;;;;;;;;19.55;49.49;101734.88;2061628;28;2086;-67
2024/03/17 01:02:36;;;;;;;;;;;;;;;19.56;49.46;101736.41;2061490;28;2147;-67
2024/03/17 01:03:36;;;;;;;;;;;;;;;19.56;49.57;101727.00;2058707;28;2514;-67
2024/03/17 01:04:37;;;;;;;;;;;;;;;19.55;49.52;101726.25;2062261;28;2065;-67
2024/03/17 01:05:42;;;;;;;;;;;;;;;19.55;49.53;101731.25;2062684;28;2225;-67
2024/03/17 01:06:42;;;;;;;;;;;;;;;19.55;49.39;101729.13;2063117;28;1676;-67
2024/03/17 01:07:43;;;;;;;;;;;;;;;19.54;49.49;101733.38;2060298;28;1666;-68
2024/03/17 01:08:43;;;;;;;;;;;;;;;19.54;49.41;101727.66;2068090;28;1958;-68
2024/03/17 01:09:46;;;;;;;;;;;;;;;19.53;49.49;101731.88;2066734;28;2167;-67
2024/03/17 01:10:49;;;;;;;;;;;;;;;19.54;49.45;101724.78;2063194;28;2115;-67
2024/03/17 01:11:50;;;;;;;;;;;;;;;19.54;49.48;101732.63;2062768;28;2533;-68
2024/03/17 01:12:50;;;;;;;;;;;;;;;19.54;49.40;101739.13;2063782;28;2156;-67
2024/03/17 01:13:51;;;;;;;;;;;;;;;19.53;49.40;101737.63;2068900;28;2357;-67
2024/03/17 01:14:51;;;;;;;;;;;;;;;19.54;49.42;101733.38;2060666;28;1961;-67
2024/03/17 01:15:52;;;;;;;;;;;;;;;19.53;49.38;101742.63;2060459;28;2357;-67
2024/03/17 01:16:52;;;;;;;;;;;;;;;19.53;49.29;101740.50;2063420;28;1610;-67
2024/03/17 01:17:53;;;;;;;;;;;;;;;19.53;49.02;101734.00;2059361;28;2176;-67
2024/03/17 01:18:53;;;;;;;;;;;;;;;19.52;49.40;101741.88;2059571;28;2128;-67
2024/03/17 01:19:53;;;;;;;;;;;;;;;19.52;49.35;101736.13;2060975;28;2214;-67
2024/03/17 01:20:54;;;;;;;;;;;;;;;19.52;49.29;101730.38;2062123;28;1589;-67
2024/03/17 01:21:54;;;;;;;;;;;;;;;19.52;49.48;101741.13;2062388;28;2356;-67
2024/03/17 01:22:55;;;;;;;;;;;;;;;19.52;49.38;101747.63;2064701;28;1573;-67
2024/03/17 01:23:55;;;;;;;;;;;;;;;19.51;49.36;101743.22;2061028;28;1659;-67
2024/03/17 01:24:55;;;;;;;;;;;;;;;19.51;49.39;101746.09;2058504;28;2088;-67
2024/03/17 01:25:56;;;;;;;;;;;;;;;19.49;49.26;101740.22;2059754;28;2303;-67
2024/03/17 01:26:57;;;;;;;;;;;;;;;19.51;49.15;101745.34;2067895;28;1611;-67
2024/03/17 01:27:57;;;;;;;;;;;;;;;19.51;49.31;101739.63;2060169;28;1735;-67
2024/03/17 01:28:58;;;;;;;;;;;;;;;19.49;49.26;101743.09;2060922;28;2058;-67
2024/03/17 01:29:58;;;;;;;;;;;;;;;19.50;49.40;101738.13;2061346;28;2238;-67
2024/03/17 01:30:59;;;;;;;;;;;;;;;19.50;49.31;101738.13;2059127;28;6319;-67
2024/03/17 01:31:59;;;;;;;;;;;;;;;19.48;49.00;101733.00;2061354;28;1996;-68
2024/03/17 01:33:00;;;;;;;;;;;;;;;19.48;49.11;101735.88;2060738;28;2018;-67
2024/03/17 01:34:01;;;;;;;;;;;;;;;19.48;49.18;101730.13;2059122;28;2139;-67
2024/03/17 01:35:01;;;;;;;;;;;;;;;19.48;49.20;101730.13;2060060;28;1756;-67
2024/03/17 01:36:02;;;;;;;;;;;;;;;19.48;49.12;101735.88;2059125;28;2226;-67
2024/03/17 01:37:02;;;;;;;;;;;;;;;19.48;49.27;101729.38;2062134;28;1656;-67
2024/03/17 01:38:02;;;;;;;;;;;;;;;19.47;49.21;101734.38;2062526;28;1685;-68
2024/03/17 01:39:03;;;;;;;;;;;;;;;19.48;49.18;101730.13;2057949;28;2084;-67
2024/03/17 01:40:09;;;;;;;;;;;;;;;19.46;49.11;101733.59;2060795;28;2363;-67
2024/03/17 01:41:09;;;;;;;;;;;;;;;19.46;49.13;101733.59;2062548;28;2334;-68
2024/03/17 01:42:09;;;;;;;;;;;;;;;19.47;49.07;101728.63;2064464;28;2065;-67
2024/03/17 01:43:11;;;;;;;;;;;;;;;19.46;49.08;101727.13;2072303;28;1811;-67
2024/03/17 01:44:21;;;;;;;;;;;;;;;19.46;49.14;101721.38;2068141;28;1774;-67
2024/03/17 01:45:25;;;;;;;;;;;;;;;19.45;49.11;101725.63;2060572;28;2349;-67
2024/03/17 01:46:26;;;;;;;;;;;;;;;19.45;49.19;101722.75;2069689;28;1997;-67
2024/03/17 01:47:27;;;;;;;;;;;;;;;19.45;49.19;101728.50;2068302;28;2118;-67
2024/03/17 01:48:27;;;;;;;;;;;;;;;19.44;49.10;101729.84;2060880;28;1887;-67
2024/03/17 01:49:27;;;;;;;;;;;;;;;19.44;49.09;101726.97;2057877;28;2292;-67
2024/03/17 01:50:34;;;;;;;;;;;;;;;19.43;49.06;101726.25;2062608;28;2105;-67
2024/03/17 01:51:35;;;;;;;;;;;;;;;19.43;49.15;101722.63;2062267;28;1640;-67
2024/03/17 01:52:35;;;;;;;;;;;;;;;19.43;49.03;101725.50;2061092;28;2216;-67
2024/03/17 01:53:37;;;;;;;;;;;;;;;19.43;49.07;101734.84;2059646;28;1917;-67
2024/03/17 01:54:38;;;;;;;;;;;;;;;19.40;49.10;101730.38;2060598;28;2014;-68
2024/03/17 01:55:39;;;;;;;;;;;;;;;19.40;49.11;101724.63;2062300;28;2280;-67
2024/03/17 01:56:40;;;;;;;;;;;;;;;19.40;49.11;101721.75;2067755;28;2059;-67
2024/03/17 01:57:40;;;;;;;;;;;;;;;19.41;49.07;101725.34;2061649;28;1626;-67
2024/03/17 01:58:43;;;;;;;;;;;;;;;19.42;49.07;101726.84;2061944;28;1602;-67
2024/03/17 01:59:44;;;;;;;;;;;;;;;19.42;49.04;101721.09;2067681;28;2242;-67
2024/03/17 02:00:44;;;;;;;;;;;;;;;19.42;49.06;101721.09;2067825;28;8249;-67
2024/03/17 02:01:45;;;;;;;;;;;;;;;19.42;49.03;101723.97;2061154;28;1640;-67
2024/03/17 02:02:45;;;;;;;;;;;;;;;19.42;49.00;101721.09;2069433;28;2387;-67
2024/03/17 02:03:46;;;;;;;;;;;;;;;19.43;49.13;101722.63;2061695;28;2248;-67
2024/03/17 02:04:47;;;;;;;;;;;;;;;19.43;49.09;101719.75;2061991;28;1661;-67
2024/03/17 02:05:48;;;;;;;;;;;;;;;19.42;49.11;101726.84;2059481;28;2352;-67
2024/03/17 02:06:48;;;;;;;;;;;;;;;19.43;49.06;101720.50;2060136;28;1705;-67
2024/03/17 02:07:49;;;;;;;;;;;;;;;19.44;49.05;101726.97;2061293;28;2077;-66
2024/03/17 02:08:50;;;;;;;;;;;;;;;19.44;49.08;101730.59;2059489;28;1685;-67
2024/03/17 02:09:51;;;;;;;;;;;;;;;19.46;48.98;101730.00;2060056;28;2054;-67
2024/03/17 02:10:54;;;;;;;;;;;;;;;19.46;49.07;101730.00;2060209;28;2224;-68
2024/03/17 02:11:55;;;;;;;;;;;;;;;19.46;49.00;101730.00;2067467;28;2246;-67
2024/03/17 02:12:55;;;;;;;;;;;;;;;19.46;48.96;101732.84;2067576;28;2303;-67
2024/03/17 02:13:56;;;;;;;;;;;;;;;19.46;49.00;101730.00;2061114;28;1979;-67
2024/03/17 02:14:59;;;;;;;;;;;;;;;19.47;49.01;101722.88;2062247;28;1911;-67
2024/03/17 02:16:00;;;;;;;;;;;;;;;19.47;48.96;101734.38;2062430;28;2309;-67
2024/03/17 02:17:00;;;;;;;;;;;;;;;19.48;49.01;101730.13;2061895;28;1722;-67
2024/03/17 02:18:00;;;;;;;;;;;;;;;19.50;48.88;101727.38;2060835;28;2167;-67
2024/03/17 02:19:01;;;;;;;;;;;;;;;19.50;48.94;101727.38;2062141;28;2008;-67
2024/03/17 02:20:07;;;;;;;;;;;;;;;19.51;49.03;101733.88;2060660;28;2093;-67
2024/03/17 02:21:09;;;;;;;;;;;;;;;19.51;49.07;101734.63;2061411;28;2308;-67
2024/03/17 02:22:16;;;;;;;;;;;;;;;19.51;48.96;101728.88;2067518;28;1652;-67
2024/03/17 02:23:18;;;;;;;;;;;;;;;19.52;48.96;101730.38;2068125;28;1664;-67
2024/03/17 02:24:19;;;;;;;;;;;;;;;19.51;49.01;101722.38;2060057;28;1893;-67
2024/03/17 02:25:19;;;;;;;;;;;;;;;19.50;49.05;101724.50;2060193;28;2305;-67
2024/03/17 02:26:20;;;;;;;;;;;;;;;19.51;48.93;101723.13;2064489;28;1668;-68
2024/03/17 02:27:20;;;;;;;;;;;;;;;19.51;49.00;101723.13;2059477;28;1836;-68
2024/03/17 02:28:20;;;;;;;;;;;;;;;19.52;49.06;101724.63;2058544;28;1640;-67
2024/03/17 02:29:21;;;;;;;;;;;;;;;19.51;49.03;101734.63;2058305;28;2147;-67
2024/03/17 02:30:21;;;;;;;;;;;;;;;19.51;49.09;101728.88;2057795;28;6164;-68
2024/03/17 02:31:22;;;;;;;;;;;;;;;19.51;48.93;101731.75;2066263;28;1593;-67
2024/03/17 02:32:22;;;;;;;;;;;;;;;19.51;49.16;101723.13;2059583;28;2159;-67
2024/03/17 02:33:23;;;;;;;;;;;;;;;19.50;49.08;101732.38;2060563;28;2109;-67
2024/03/17 02:34:23;;;;;;;;;;;;;;;19.50;49.04;101727.38;2061952;28;2226;-68
2024/03/17 02:35:24;;;;;;;;;;;;;;;19.50;49.09;101729.50;2060130;28;2281;-67
2024/03/17 02:36:24;;;;;;;;;;;;;;;19.50;49.19;101733.13;2062117;28;1753;-67
2024/03/17 02:37:25;;;;;;;;;;;;;;;19.50;49.20;101735.25;2059453;28;1717;-67
2024/03/17 02:39:49;;;;;;;;;;;;;;;19.49;49.27;101730.88;2046804;28;2099;-67
2024/03/17 02:40:49;;;;;;;;;;;;;;;19.50;49.19;101733.13;2065998;28;2138;-68
2024/03/17 02:41:50;;;;;;;;;;;;;;;19.48;49.26;101730.13;2052169;28;1837;-67
2024/03/17 02:42:50;;;;;;;;;;;;;;;19.48;49.23;101721.50;2060468;28;2010;-67
2024/03/17 02:43:51;;;;;;;;;;;;;;;19.48;49.27;101735.88;2060526;28;1668;-68
2024/03/17 02:44:51;;;;;;;;;;;;;;;19.48;49.20;101730.13;2058095;28;1930;-67
2024/03/17 02:45:52;;;;;;;;;;;;;;;19.48;49.29;101727.25;2058720;28;2358;-68
2024/03/17 02:46:52;;;;;;;;;;;;;;;19.48;49.27;101721.50;2061326;28;1766;-67
2024/03/17 02:47:53;;;;;;;;;;;;;;;19.49;49.25;101728.00;2060820;28;1643;-67
2024/03/17 02:48:53;;;;;;;;;;;;;;;19.48;49.28;101729.38;2061157;28;2347;-68
2024/03/17 02:49:54;;;;;;;;;;;;;;;19.49;49.19;101734.47;2068641;28;2672;-67
2024/03/17 02:50:55;;;;;;;;;;;;;;;19.49;49.17;101730.88;2065528;28;2135;-67
2024/03/17 02:51:56;;;;;;;;;;;;;;;19.48;49.31;101735.88;2059793;28;2129;-67
2024/03/17 02:52:56;;;;;;;;;;;;;;;19.49;49.29;101736.63;2060507;28;2136;-67
2024/03/17 02:53:59;;;;;;;;;;;;;;;19.48;49.26;101741.63;2060665;28;2344;-67
2024/03/17 02:54:59;;;;;;;;;;;;;;;19.49;49.21;101736.63;2061159;28;2136;-67
2024/03/17 02:56:00;;;;;;;;;;;;;;;19.50;49.35;101735.25;2060270;28;2253;-67
2024/03/17 02:57:01;;;;;;;;;;;;;;;19.50;49.30;101738.88;2060160;28;1875;-67
2024/03/17 02:58:01;;;;;;;;;;;;;;;19.50;49.29;101744.63;2059769;28;1668;-67
2024/03/17 02:59:02;;;;;;;;;;;;;;;19.50;49.23;101741.75;2059802;28;2093;-68
2024/03/17 03:00:05;;;;;;;;;;;;;;;19.51;49.29;101740.38;2065582;28;6184;-67
2024/03/17 03:01:05;;;;;;;;;;;;;;;19.51;49.22;101743.22;2067455;28;1851;-67
2024/03/17 03:02:06;;;;;;;;;;;;;;;19.51;49.26;101737.50;2060252;28;2116;-68
2024/03/17 03:03:06;;;;;;;;;;;;;;;19.52;49.28;101736.13;2062497;28;2133;-67
2024/03/17 03:04:07;;;;;;;;;;;;;;;19.52;49.21;101741.13;2058521;28;2243;-67
2024/03/17 03:05:07;;;;;;;;;;;;;;;19.51;49.27;101734.63;2060546;28;2239;-67
2024/03/17 03:06:11;;;;;;;;;;;;;;;19.52;49.40;101733.25;2067918;28;2283;-67
2024/03/17 03:07:12;;;;;;;;;;;;;;;19.52;49.33;101735.38;2067927;28;1683;-67
2024/03/17 03:08:13;;;;;;;;;;;;;;;19.51;49.24;101728.88;2060167;28;2097;-67
2024/03/17 03:09:14;;;;;;;;;;;;;;;19.52;49.28;101736.13;2060028;28;2175;-67
2024/03/17 03:10:15;;;;;;;;;;;;;;;19.52;49.37;101735.38;2059781;28;1846;-67
2024/03/17 03:11:16;;;;;;;;;;;;;;;19.51;49.23;101728.13;2062344;28;2065;-67
2024/03/17 03:12:16;;;;;;;;;;;;;;;19.52;49.25;101736.13;2059878;28;1707;-67
2024/03/17 03:13:16;;;;;;;;;;;;;;;19.51;49.39;101731.75;2059479;28;2065;-67
2024/03/17 03:14:17;;;;;;;;;;;;;;;19.51;49.22;101740.38;2068348;28;2032;-67
2024/03/17 03:15:18;;;;;;;;;;;;;;;19.51;49.50;101734.63;2059776;28;2120;-68
2024/03/17 03:16:18;;;;;;;;;;;;;;;19.51;49.43;101731.75;2058414;28;2265;-67
2024/03/17 03:17:19;;;;;;;;;;;;;;;19.51;49.36;101742.50;2062529;28;2236;-67
2024/03/17 03:18:19;;;;;;;;;;;;;;;19.51;49.48;101739.63;2061675;28;1711;-67
2024/03/17 03:19:20;;;;;;;;;;;;;;;19.51;49.49;101743.22;2061250;28;1655;-67
2024/03/17 03:20:20;;;;;;;;;;;;;;;19.51;49.55;101739.63;2059810;28;2116;-67
2024/03/17 03:21:22;;;;;;;;;;;;;;;19.49;49.43;101736.63;2059756;28;2093;-67
2024/03/17 03:22:22;;;;;;;;;;;;;;;19.49;49.49;101740.22;2059897;28;1684;-67
2024/03/17 03:23:23;;;;;;;;;;;;;;;19.49;49.46;101736.63;2057765;28;2092;-68
2024/03/17 03:24:23;;;;;;;;;;;;;;;19.48;49.47;101741.63;2067246;28;2178;-67
2024/03/17 03:25:23;;;;;;;;;;;;;;;19.48;49.48;101735.13;2059177;28;2084;-67
2024/03/17 03:26:24;;;;;;;;;;;;;;;19.48;49.32;101740.88;2060282;28;2230;-68
2024/03/17 03:27:24;;;;;;;;;;;;;;;19.47;49.37;101740.13;2061200;28;1640;-67
2024/03/17 03:28:25;;;;;;;;;;;;;;;19.48;49.45;101741.63;2058989;28;2084;-67
2024/03/17 03:29:26;;;;;;;;;;;;;;;19.45;49.41;101734.25;2061119;28;2228;-67
2024/03/17 03:30:26;;;;;;;;;;;;;;;19.46;49.43;101739.34;2058701;28;6250;-67
2024/03/17 03:31:27;;;;;;;;;;;;;;;19.46;49.45;101733.59;2059074;28;2482;-67
2024/03/17 03:32:27;;;;;;;;;;;;;;;19.46;49.39;101744.34;2059085;28;2159;-67
2024/03/17 03:33:28;;;;;;;;;;;;;;;19.46;49.44;101736.47;2060661;28;2060;-68
2024/03/17 03:34:28;;;;;;;;;;;;;;;19.47;49.51;101740.13;2062052;28;1977;-67
2024/03/17 03:35:29;;;;;;;;;;;;;;;19.47;49.46;101740.13;2062679;28;2302;-68
2024/03/17 03:36:29;;;;;;;;;;;;;;;19.48;49.46;101738.00;2062337;28;2337;-67
2024/03/17 03:37:30;;;;;;;;;;;;;;;19.47;49.48;101737.25;2059827;28;1674;-67
2024/03/17 03:38:31;;;;;;;;;;;;;;;19.48;49.49;101743.75;2059629;28;2037;-67
2024/03/17 03:39:31;;;;;;;;;;;;;;;19.48;49.31;101735.88;2059800;28;2298;-67
2024/03/17 03:40:32;;;;;;;;;;;;;;;19.48;49.42;101741.63;2059237;28;2133;-67
2024/03/17 03:41:33;;;;;;;;;;;;;;;19.49;49.48;101743.09;2061119;28;2061;-67
2024/03/17 03:42:33;;;;;;;;;;;;;;;19.49;49.49;101748.84;2068205;28;1584;-67
2024/03/17 03:43:34;;;;;;;;;;;;;;;19.51;49.42;101745.34;2069263;28;2063;-68
2024/03/17 03:44:34;;;;;;;;;;;;;;;19.51;49.27;101740.38;2062380;28;1587;-67
2024/03/17 03:45:35;;;;;;;;;;;;;;;19.51;49.41;101740.38;2062515;28;2045;-67
2024/03/17 03:46:35;;;;;;;;;;;;;;;19.52;49.26;101741.13;2059141;28;2768;-67
2024/03/17 03:47:35;;;;;;;;;;;;;;;19.52;49.34;101744.75;2060146;28;1894;-67
2024/03/17 03:48:36;;;;;;;;;;;;;;;19.53;49.44;101749.09;2060997;28;1586;-67
2024/03/17 03:49:36;;;;;;;;;;;;;;;19.54;49.44;101746.97;2060037;28;2433;-67
2024/03/17 03:50:38;;;;;;;;;;;;;;;19.55;49.47;101745.63;2058698;28;2305;-67
2024/03/17 03:51:39;;;;;;;;;;;;;;;19.55;49.43;101746.38;2060330;28;2401;-67
2024/03/17 03:52:42;;;;;;;;;;;;;;;19.55;49.53;101745.63;2058454;28;2100;-67
2024/03/17 03:53:43;;;;;;;;;;;;;;;19.56;49.60;101747.88;2062723;28;2110;-67
2024/03/17 03:54:43;;;;;;;;;;;;;;;19.56;49.48;101747.88;2062008;28;2208;-67
2024/03/17 03:55:43;;;;;;;;;;;;;;;19.56;49.50;101747.88;2057183;28;2479;-68
2024/03/17 03:56:44;;;;;;;;;;;;;;;19.57;49.89;101749.38;2058571;28;2069;-68
2024/03/17 03:57:48;;;;;;;;;;;;;;;19.57;49.77;101755.13;2066808;28;2051;-68
2024/03/17 03:58:49;;;;;;;;;;;;;;;19.58;49.81;101755.88;2067317;28;1656;-67
2024/03/17 03:59:50;;;;;;;;;;;;;;;19.58;49.67;101755.88;2060061;28;2341;-67
2024/03/17 04:00:50;;;;;;;;;;;;;;;19.58;49.71;101762.34;2057390;28;6084;-67
2024/03/17 04:01:52;;;;;;;;;;;;;;;19.58;49.78;101756.63;2059263;28;2129;-67
2024/03/17 04:02:52;;;;;;;;;;;;;;;19.59;49.85;101757.38;2063409;28;1641;-67
2024/03/17 04:03:52;;;;;;;;;;;;;;;19.59;49.62;101757.38;2063009;28;1637;-69
2024/03/17 04:04:53;;;;;;;;;;;;;;;19.59;49.83;101758.13;2060511;28;2147;-67
2024/03/17 04:06:00;;;;;;;;;;;;;;;19.61;50.05;101761.13;2059056;28;2556;-67
2024/03/17 04:07:00;;;;;;;;;;;;;;;19.61;50.08;101754.66;2061340;28;1626;-67
2024/03/17 04:08:01;;;;;;;;;;;;;;;19.61;49.97;101755.38;2060421;28;1805;-67
2024/03/17 04:09:01;;;;;;;;;;;;;;;19.61;49.87;101755.38;2056968;28;2070;-67
2024/03/17 04:10:02;;;;;;;;;;;;;;;19.60;49.73;101753.88;2058788;28;2081;-66
2024/03/17 04:11:03;;;;;;;;;;;;;;;19.63;49.89;101751.88;2056940;28;2139;-67
2024/03/17 04:12:03;;;;;;;;;;;;;;;19.63;50.09;101752.66;2060712;28;2010;-67
2024/03/17 04:13:04;;;;;;;;;;;;;;;19.62;50.26;101751.13;2060506;28;2222;-68
2024/03/17 04:14:04;;;;;;;;;;;;;;;19.62;50.19;101751.13;2061041;28;1644;-67
2024/03/17 04:15:06;;;;;;;;;;;;;;;19.63;50.04;101749.78;2059464;28;2096;-67
2024/03/17 04:16:07;;;;;;;;;;;;;;;19.62;50.10;101745.38;2059857;28;2400;-67
2024/03/17 04:17:07;;;;;;;;;;;;;;;19.61;50.10;101752.50;2061563;28;1858;-67
2024/03/17 04:18:07;;;;;;;;;;;;;;;19.61;50.10;101749.63;2059853;28;1805;-67
2024/03/17 04:19:08;;;;;;;;;;;;;;;19.61;50.01;101743.91;2061018;28;1968;-67
2024/03/17 04:20:12;;;;;;;;;;;;;;;19.61;49.85;101741.03;2066068;28;2229;-67
2024/03/17 04:21:13;;;;;;;;;;;;;;;19.61;49.79;101743.91;2066297;28;1674;-67
2024/03/17 04:22:13;;;;;;;;;;;;;;;19.61;49.87;101754.66;2060365;28;2081;-67
2024/03/17 04:23:14;;;;;;;;;;;;;;;19.61;49.78;101752.50;2058694;28;2120;-67
2024/03/17 04:24:14;;;;;;;;;;;;;;;19.60;49.81;101748.13;2060422;28;2186;-67
2024/03/17 04:25:15;;;;;;;;;;;;;;;19.61;49.88;101754.66;2061984;28;2082;-67
2024/03/17 04:26:15;;;;;;;;;;;;;;;19.59;49.85;101751.63;2059483;28;2258;-67
2024/03/17 04:27:15;;;;;;;;;;;;;;;19.61;49.99;101748.91;2060290;28;2206;-67
2024/03/17 04:28:16;;;;;;;;;;;;;;;19.61;49.86;101751.78;2060622;28;2097;-67
2024/03/17 04:29:16;;;;;;;;;;;;;;;19.60;49.86;101748.13;2068378;28;2208;-67
2024/03/17 04:30:17;;;;;;;;;;;;;;;19.61;49.89;101757.50;2057198;28;6457;-67
2024/03/17 04:31:17;;;;;;;;;;;;;;;19.60;50.02;101756.75;2059241;28;2437;-67
2024/03/17 04:32:18;;;;;;;;;;;;;;;19.61;50.08;101754.66;2067885;28;1662;-67
2024/03/17 04:33:19;;;;;;;;;;;;;;;19.61;50.08;101755.38;2061154;28;1650;-67
2024/03/17 04:34:19;;;;;;;;;;;;;;;19.63;49.96;101751.88;2053418;28;1698;-67
2024/03/17 04:35:20;;;;;;;;;;;;;;;19.62;49.77;101762.63;2060108;28;1993;-67
2024/03/17 04:36:20;;;;;;;;;;;;;;;19.63;49.96;101763.38;2066652;28;2141;-68
2024/03/17 04:37:20;;;;;;;;;;;;;;;19.62;50.00;101751.13;2060377;28;2254;-67
2024/03/17 04:38:21;;;;;;;;;;;;;;;19.64;50.06;101765.63;2061209;28;1548;-67
2024/03/17 04:39:22;;;;;;;;;;;;;;;19.64;50.12;101759.13;2059413;28;2669;-67
2024/03/17 04:40:22;;;;;;;;;;;;;;;19.64;49.91;101754.13;2056751;28;2150;-67
2024/03/17 04:41:22;;;;;;;;;;;;;;;19.65;50.03;101761.41;2065388;28;2096;-67
2024/03/17 04:42:23;;;;;;;;;;;;;;;19.65;50.07;101761.41;2057683;28;2136;-68
2024/03/17 04:43:23;;;;;;;;;;;;;;;19.66;50.13;101762.88;2061527;28;1617;-68
2024/03/17 04:44:24;;;;;;;;;;;;;;;19.66;49.98;101756.41;2058847;28;1637;-67
2024/03/17 04:45:24;;;;;;;;;;;;;;;19.66;49.92;101762.16;2058149;28;1656;-67
2024/03/17 04:46:26;;;;;;;;;;;;;;;19.67;49.97;101764.38;2061261;28;2129;-68
2024/03/17 04:47:26;;;;;;;;;;;;;;;19.67;50.09;101758.63;2058935;28;2239;-67
2024/03/17 04:48:27;;;;;;;;;;;;;;;19.67;50.10;101755.75;2061390;28;1653;-67
2024/03/17 04:49:27;;;;;;;;;;;;;;;19.68;50.00;101756.53;2057941;28;1868;-67
2024/03/17 04:50:31;;;;;;;;;;;;;;;19.69;50.04;101760.19;2058201;28;2234;-67
2024/03/17 04:51:35;;;;;;;;;;;;;;;19.69;50.18;101760.19;2061275;28;2476;-67
2024/03/17 04:52:35;;;;;;;;;;;;;;;19.69;50.14;101758.03;2061237;28;1807;-67
2024/03/17 04:53:36;;;;;;;;;;;;;;;19.69;49.96;101760.19;2060846;28;2140;-67
2024/03/17 04:54:36;;;;;;;;;;;;;;;19.69;50.00;101760.19;2066492;28;2063;-68
2024/03/17 04:55:36;;;;;;;;;;;;;;;19.70;50.08;101761.66;2057862;28;1753;-67
2024/03/17 04:56:37;;;;;;;;;;;;;;;19.70;50.16;101761.66;2058251;28;2301;-67
2024/03/17 04:57:37;;;;;;;;;;;;;;;19.70;50.20;101758.78;2061004;28;1645;-65
2024/03/17 04:58:38;;;;;;;;;;;;;;;19.67;50.00;101764.38;2059000;28;1767;-67
2024/03/17 04:59:38;;;;;;;;;;;;;;;19.67;49.82;101757.88;2059138;28;1765;-66
2024/03/17 05:00:38;;;;;;;;;;;;;;;19.67;49.93;101769.38;2057114;28;6138;-67
2024/03/17 05:01:39;;;;;;;;;;;;;;;19.67;50.04;101763.63;2057384;28;2092;-68
2024/03/17 05:02:40;;;;;;;;;;;;;;;19.66;50.03;101760.00;2058849;28;1808;-67
2024/03/17 05:03:40;;;;;;;;;;;;;;;19.65;50.11;101772.88;2059455;28;1733;-67
2024/03/17 05:04:42;;;;;;;;;;;;;;;19.64;49.98;101759.88;2057447;28;2009;-67
2024/03/17 05:05:42;;;;;;;;;;;;;;;19.65;50.11;101767.16;2066902;28;2174;-67
2024/03/17 05:06:46;;;;;;;;;;;;;;;19.65;50.17;101767.16;2067633;28;2449;-67
2024/03/17 05:07:46;;;;;;;;;;;;;;;19.66;49.96;101767.88;2058252;28;2177;-67
2024/03/17 05:08:47;;;;;;;;;;;;;;;19.66;50.08;101773.63;2057345;28;1884;-67
2024/03/17 05:09:47;;;;;;;;;;;;;;;19.65;49.98;101778.63;2067942;28;1595;-67
2024/03/17 05:10:47;;;;;;;;;;;;;;;19.65;49.93;101775.75;2066073;28;2351;-67
2024/03/17 05:11:49;;;;;;;;;;;;;;;19.66;50.02;101774.38;2057949;28;2108;-68
2024/03/17 05:12:50;;;;;;;;;;;;;;;19.65;49.97;101775.75;2058686;28;1676;-67
2024/03/17 05:13:50;;;;;;;;;;;;;;;19.66;50.16;101768.63;2058617;28;1656;-66
2024/03/17 05:14:51;;;;;;;;;;;;;;;19.67;49.91;101781.63;2058840;28;2280;-67
2024/03/17 05:15:51;;;;;;;;;;;;;;;19.66;50.04;101777.25;2059906;28;2038;-67
2024/03/17 05:16:52;;;;;;;;;;;;;;;19.68;50.02;101776.66;2061712;28;2123;-67
2024/03/17 05:17:52;;;;;;;;;;;;;;;19.67;50.18;101767.25;2060559;28;1664;-67
2024/03/17 05:18:52;;;;;;;;;;;;;;;19.68;50.23;101770.91;2057642;28;2147;-67